Time;durP1;ratioP1;P1;durP2;ratioP2;P2;SDS_P1;SDS_P2;PMS_P1;PMS_P2;Temp;Humidity;BMP_temperature;BMP_pressure;BME280_temperature;BME280_humidity;BME280_pressure;Samples;Min_cycle;Max_cycle;Signal;HPM_P1;HPM_P2
2022/11/01 00:01:03;;;;;;;12.47;8.13;;;;;;;15.10;65.97;95371.50;4882207;29;20196;-84
2022/11/01 00:03:30;;;;;;;12.00;6.80;;;;;;;15.03;66.06;95356.66;4880550;29;20201;-80
2022/11/01 00:05:57;;;;;;;9.90;6.90;;;;;;;15.02;65.97;95367.09;4881501;29;20197;-81
2022/11/01 00:08:24;;;;;;;11.57;6.87;;;;;;;14.98;66.09;95348.56;4880230;29;20293;-80
2022/11/01 00:10:51;;;;;;;9.93;6.87;;;;;;;15.07;66.12;95362.31;4880442;29;20189;-81
2022/11/01 00:13:18;;;;;;;12.73;7.00;;;;;;;14.95;66.11;95340.31;4881045;29;20229;-83
2022/11/01 00:15:45;;;;;;;10.50;7.10;;;;;;;15.06;66.12;95370.97;4880103;29;20717;-82
2022/11/01 00:18:15;;;;;;;14.33;7.47;;;;;;;15.05;66.00;95364.22;4877550;29;20589;-84
2022/11/01 00:20:42;;;;;;;12.67;7.53;;;;;;;15.00;65.88;95364.66;4879642;29;20193;-83
2022/11/01 00:23:09;;;;;;;9.50;7.43;;;;;;;15.03;66.13;95366.94;4879090;29;20665;-85
2022/11/01 00:25:36;;;;;;;10.17;6.67;;;;;;;14.89;66.01;95339.13;4880296;29;20315;-82
2022/11/01 00:28:04;;;;;;;12.27;7.57;;;;;;;15.02;66.24;95367.09;4881448;29;20287;-84
2022/11/01 00:30:31;;;;;;;9.50;7.30;;;;;;;15.00;66.20;95356.94;4880700;29;20201;-81
2022/11/01 00:32:58;;;;;;;10.27;6.67;;;;;;;14.90;66.15;95345.91;4878096;29;20625;-82
2022/11/01 00:35:27;;;;;;;12.07;7.23;;;;;;;14.97;66.11;95357.22;4877581;29;20588;-82
2022/11/01 00:37:53;;;;;;;9.87;6.67;;;;;;;14.95;66.32;95360.91;4877192;29;20337;-85
2022/11/01 00:40:20;;;;;;;9.87;7.47;;;;;;;14.96;66.19;95360.75;4878127;29;20185;-81
2022/11/01 00:42:48;;;;;;;9.43;6.90;;;;;;;14.85;66.17;95350.69;4877763;29;20196;-84
2022/11/01 00:45:19;;;;;;;8.67;6.93;;;;;;;14.90;66.09;95361.38;4877217;29;20641;-83
2022/11/01 00:47:47;;;;;;;8.03;6.33;;;;;;;14.91;66.42;95365.56;4879326;29;20585;-88
2022/11/01 00:50:14;;;;;;;10.73;6.13;;;;;;;14.89;66.31;95362.31;4890804;29;20194;-89
2022/11/01 00:52:42;;;;;;;7.80;6.27;;;;;;;14.88;66.29;95358.13;4888444;29;20256;-87
2022/11/01 00:55:09;;;;;;;9.23;6.87;;;;;;;14.87;66.39;95360.84;4890013;29;20212;-90
2022/11/01 00:57:36;;;;;;;11.37;7.00;;;;;;;14.80;66.53;95352.88;4887161;29;20632;-84
2022/11/01 01:00:04;;;;;;;11.33;5.97;;;;;;;14.41;66.35;95296.50;4883570;29;20212;-86
2022/11/01 01:02:32;;;;;;;8.90;6.73;;;;;;;14.82;66.42;95370.78;4881194;29;20189;-85
2022/11/01 01:04:58;;;;;;;9.47;6.87;;;;;;;14.71;66.38;95351.19;4880941;29;20201;-82
2022/11/01 01:07:26;;;;;;;10.77;7.20;;;;;;;14.78;66.51;95367.69;4881849;29;20212;-84
2022/11/01 01:09:54;;;;;;;9.73;6.27;;;;;;;14.78;66.86;95365.13;4885175;29;20185;-86
2022/11/01 01:12:21;;;;;;;9.23;6.20;;;;;;;14.65;66.56;95350.03;4881540;29;20569;-87
2022/11/01 01:14:51;;;;;;;9.03;7.07;;;;;;;14.70;66.59;95358.13;4896508;29;20658;-84
2022/11/01 01:17:18;;;;;;;11.33;6.93;;;;;;;14.73;66.63;95364.75;4886234;29;20237;-81
2022/11/01 01:19:45;;;;;;;12.53;7.27;;;;;;;14.71;66.59;95362.31;4868123;29;20201;-82
2022/11/01 01:22:23;;;;;;;10.27;5.93;;;;;;;14.45;66.63;95328.72;4868887;29;20205;-82
2022/11/01 01:24:50;;;;;;;7.97;6.50;;;;;;;14.68;66.65;95370.34;4888646;29;20237;-83
2022/11/01 01:27:18;;;;;;;11.10;6.93;;;;;;;14.48;66.81;95341.34;4892945;29;20208;-80
2022/11/01 01:29:45;;;;;;;7.97;6.10;;;;;;;14.65;66.88;95365.47;4891744;29;20201;-80
2022/11/01 01:32:12;;;;;;;8.07;6.20;;;;;;;14.59;66.73;95357.50;4890262;29;20221;-83
2022/11/01 01:34:39;;;;;;;8.00;6.03;;;;;;;14.51;66.88;95355.69;4890300;29;20200;-82
2022/11/01 01:37:08;;;;;;;12.60;6.77;;;;;;;14.52;67.09;95357.31;4882870;29;20280;-83
2022/11/01 01:39:35;;;;;;;8.20;6.43;;;;;;;14.60;66.92;95366.88;4879636;29;20204;-81
2022/11/01 01:42:05;;;;;;;10.70;6.23;;;;;;;14.50;66.79;95352.28;4878136;29;20709;-86
2022/11/01 01:45:24;;;;;;;11.27;6.90;;;;;;;14.56;66.93;95368.94;4877527;29;20674;-85
2022/11/01 01:47:53;;;;;;;8.50;5.90;;;;;;;14.53;66.86;95371.78;4877948;29;20672;-87
2022/11/01 01:50:25;;;;;;;12.90;6.13;;;;;;;14.52;67.09;95375.31;4879309;29;20886;-83
2022/11/01 01:52:58;;;;;;;8.23;6.03;;;;;;;14.46;66.98;95363.78;4880401;29;20185;-85
2022/11/01 01:55:28;;;;;;;7.57;5.90;;;;;;;14.49;67.18;95373.03;4880411;29;20189;-84
2022/11/01 01:57:57;;;;;;;13.07;6.37;;;;;;;14.48;67.15;95368.81;4880321;29;20287;-81
2022/11/01 02:00:26;;;;;;;8.53;6.73;;;;;;;14.32;67.23;95354.78;4880967;29;20212;-82
2022/11/01 02:02:53;;;;;;;8.63;6.30;;;;;;;14.46;67.00;95373.28;4880073;29;20189;-83
2022/11/01 02:05:29;;;;;;;6.97;6.13;;;;;;;14.45;67.22;95372.47;4879877;29;20204;-82
2022/11/01 02:07:57;;;;;;;10.00;6.60;;;;;;;14.42;67.17;95375.34;4879515;29;20292;-85
2022/11/01 02:10:24;;;;;;;12.83;7.10;;;;;;;14.41;67.11;95371.13;4879308;29;20189;-85
2022/11/01 02:12:51;;;;;;;9.37;6.63;;;;;;;14.42;67.26;95371.94;4880119;29;20201;-85
2022/11/01 02:15:21;;;;;;;8.37;6.27;;;;;;;14.39;67.13;95370.47;4879480;29;20229;-84
2022/11/01 02:18:04;;;;;;;9.33;6.67;;;;;;;13.95;67.18;95297.50;4879255;29;20221;-85
2022/11/01 02:21:12;;;;;;;13.20;6.97;;;;;;;14.37;67.33;95367.22;4879215;29;20193;-85
2022/11/01 02:23:59;;;;;;;11.47;7.33;;;;;;;14.21;67.42;95359.34;4821395;29;20199;-84
2022/11/01 02:26:48;;;;;;;10.60;7.33;;;;;;;14.32;67.52;95383.09;4821797;29;20206;-83
2022/11/01 02:29:26;;;;;;;14.57;7.00;;;;;;;14.31;67.58;95378.09;4821509;29;20207;-85
2022/11/01 02:32:16;;;;;;;11.63;6.73;;;;;;;14.29;67.50;95382.56;4821145;29;20274;-83
2022/11/01 02:34:50;;;;;;;9.80;6.83;;;;;;;14.20;67.49;95373.13;4821295;29;20214;-85
2022/11/01 02:37:25;;;;;;;8.83;6.87;;;;;;;14.22;67.51;95387.50;4820882;29;20218;-83
2022/11/01 02:39:55;;;;;;;11.10;6.87;;;;;;;14.24;67.61;95382.19;4821994;29;20206;-85
2022/11/01 02:42:28;;;;;;;8.20;6.60;;;;;;;14.21;67.46;95385.88;4822396;29;20207;-84
2022/11/01 02:45:00;;;;;;;11.40;7.20;;;;;;;14.10;67.49;95377.53;4822781;29;20243;-84
2022/11/01 02:47:31;;;;;;;13.67;8.00;;;;;;;14.19;67.56;95394.69;4821823;29;20207;-83
2022/11/01 02:50:01;;;;;;;8.70;7.00;;;;;;;14.18;67.54;95396.44;4821395;29;20203;-83
2022/11/01 02:52:31;;;;;;;9.40;6.80;;;;;;;14.03;67.61;95372.97;4821213;29;20243;-83
2022/11/01 02:54:59;;;;;;;8.20;6.27;;;;;;;14.11;67.83;95389.44;4821440;29;20276;-84
2022/11/01 02:57:30;;;;;;;8.63;5.73;;;;;;;14.16;67.64;95397.53;4840179;29;20228;-83
2022/11/01 03:00:01;;;;;;;9.17;6.77;;;;;;;14.11;67.60;95397.16;4879309;29;20197;-84
2022/11/01 03:02:39;;;;;;;9.43;7.33;;;;;;;14.09;67.76;95393.94;4879228;29;20197;-83
2022/11/01 03:05:12;;;;;;;9.70;6.87;;;;;;;14.11;67.91;95404.88;4878659;29;20200;-83
2022/11/01 03:07:42;;;;;;;12.03;6.57;;;;;;;14.09;67.86;95401.63;4879160;29;20688;-83
2022/11/01 03:10:10;;;;;;;9.53;6.73;;;;;;;14.08;67.83;95407.75;4879043;29;20193;-83
2022/11/01 03:12:50;;;;;;;9.77;7.03;;;;;;;14.06;67.75;95407.88;4881650;29;20193;-83
2022/11/01 03:15:24;;;;;;;7.90;5.83;;;;;;;14.04;67.81;95420.06;4880828;29;20224;-83
2022/11/01 03:17:59;;;;;;;9.63;6.87;;;;;;;14.03;67.94;95414.13;4879340;29;20244;-82
2022/11/01 03:20:46;;;;;;;8.33;6.47;;;;;;;14.02;67.90;95409.09;4878997;29;20341;-81
2022/11/01 03:23:16;;;;;;;12.37;6.83;;;;;;;14.00;67.85;95411.00;4879137;29;20200;-83
2022/11/01 03:25:47;;;;;;;11.60;6.50;;;;;;;13.99;68.03;95415.34;4878576;29;20198;-83
2022/11/01 03:28:19;;;;;;;9.10;5.80;;;;;;;13.95;67.80;95401.16;4878228;29;20557;-82
2022/11/01 03:30:53;;;;;;;10.20;6.10;;;;;;;13.98;67.88;95412.91;4879104;29;20220;-83
2022/11/01 03:33:24;;;;;;;9.87;6.60;;;;;;;13.95;68.05;95416.59;4879625;29;20189;-83
2022/11/01 03:35:54;;;;;;;10.37;6.47;;;;;;;13.92;68.06;95405.75;4878667;29;20208;-84
2022/11/01 03:38:26;;;;;;;9.03;6.47;;;;;;;13.94;67.97;95414.13;4891817;29;20232;-85
2022/11/01 03:40:58;;;;;;;8.53;6.27;;;;;;;13.93;68.03;95407.38;4894749;29;20208;-81
2022/11/01 03:43:27;;;;;;;10.90;6.73;;;;;;;13.90;68.10;95402.50;4895565;29;20201;-84
2022/11/01 03:45:55;;;;;;;10.17;6.70;;;;;;;13.90;68.05;95412.78;4890260;29;20189;-84
2022/11/01 03:48:23;;;;;;;7.70;6.20;;;;;;;13.89;68.28;95417.13;4878683;29;20221;-84
2022/11/01 03:50:52;;;;;;;8.30;5.17;;;;;;;13.88;67.84;95407.00;4878932;29;20199;-81
2022/11/01 03:53:19;;;;;;;8.73;5.93;;;;;;;13.87;68.14;95410.53;4877923;29;20200;-83
2022/11/01 03:55:46;;;;;;;7.63;5.80;;;;;;;13.85;68.22;95410.63;4878360;29;20245;-84
2022/11/01 03:58:15;;;;;;;7.70;5.67;;;;;;;13.80;68.14;95408.50;4880193;29;20224;-84
2022/11/01 04:00:46;;;;;;;7.57;6.23;;;;;;;13.84;68.05;95410.78;4898240;29;20228;-84
2022/11/01 04:03:13;;;;;;;7.63;5.63;;;;;;;13.76;68.27;95408.91;4898847;29;20193;-82
2022/11/01 04:05:42;;;;;;;11.23;6.07;;;;;;;13.77;68.30;95406.22;4891343;29;20649;-83
2022/11/01 04:08:11;;;;;;;7.87;5.83;;;;;;;13.76;68.27;95403.75;4878945;29;20201;-83
2022/11/01 04:10:38;;;;;;;7.43;6.10;;;;;;;13.79;68.29;95424.06;4878160;29;20189;-82
2022/11/01 04:13:05;;;;;;;6.27;5.53;;;;;;;13.66;68.22;95395.28;4876846;29;20197;-81
2022/11/01 04:21:09;;;;;;;10.57;6.03;;;;;;;13.74;68.36;95405.69;4820104;29;20191;-82
2022/11/01 04:23:36;;;;;;;10.27;6.27;;;;;;;13.73;68.27;95404.88;4820304;29;20203;-82
2022/11/01 04:26:05;;;;;;;9.10;5.87;;;;;;;13.71;68.30;95406.75;4819486;29;20707;-83
2022/11/01 04:28:32;;;;;;;6.73;5.07;;;;;;;13.71;68.41;95414.47;4820372;29;20715;-81
2022/11/01 04:30:59;;;;;;;5.57;5.03;;;;;;;13.66;68.35;95403.00;4819756;29;20651;-81
2022/11/01 04:33:26;;;;;;;10.20;5.50;;;;;;;13.65;68.40;95399.63;4820110;29;20199;-82
2022/11/01 04:35:53;;;;;;;8.73;5.67;;;;;;;13.66;68.36;95406.38;4819813;29;20214;-84
2022/11/01 04:38:21;;;;;;;11.77;5.53;;;;;;;13.67;68.27;95415.69;4820025;29;20660;-82
2022/11/01 04:40:49;;;;;;;11.30;5.70;;;;;;;13.65;68.36;95409.91;4819976;29;20680;-80
2022/11/01 04:43:21;;;;;;;7.27;5.40;;;;;;;13.52;68.33;95392.19;4820260;29;20298;-84
2022/11/01 04:45:54;;;;;;;11.30;6.07;;;;;;;13.63;68.35;95414.34;4819957;29;20239;-83
2022/11/01 04:48:21;;;;;;;5.43;4.87;;;;;;;13.61;68.59;95418.84;4819747;29;20654;-82
2022/11/01 04:50:47;;;;;;;9.97;5.53;;;;;;;13.60;68.43;95409.50;4820110;29;20195;-84
2022/11/01 04:53:32;;;;;;;8.73;5.90;;;;;;;13.49;68.38;95396.81;4820118;29;20318;-83
2022/11/01 04:56:01;;;;;;;6.83;5.67;;;;;;;13.52;68.38;95406.81;4820325;29;20302;-82
2022/11/01 04:58:27;;;;;;;10.63;5.87;;;;;;;13.58;68.50;95415.72;4858037;29;20232;-83
2022/11/01 05:00:54;;;;;;;11.70;5.97;;;;;;;13.57;68.46;95421.81;4876814;29;20204;-82
2022/11/01 05:03:21;;;;;;;8.90;5.67;;;;;;;13.48;68.65;95415.75;4877446;29;20644;-80
2022/11/01 05:05:52;;;;;;;8.63;5.57;;;;;;;13.54;68.67;95426.25;4876399;29;20201;-82
2022/11/01 05:08:19;;;;;;;7.57;5.50;;;;;;;13.38;68.61;95396.94;4877086;29;20200;-84
2022/11/01 05:10:47;;;;;;;6.70;5.77;;;;;;;13.56;68.56;95431.28;4880847;29;20659;-84
2022/11/01 05:13:14;;;;;;;9.23;5.67;;;;;;;13.46;68.57;95409.91;4878488;29;20204;-84
2022/11/01 05:15:41;;;;;;;7.93;5.73;;;;;;;13.50;68.31;95421.53;4877734;29;20300;-85
2022/11/01 05:18:08;;;;;;;8.10;6.00;;;;;;;13.60;68.48;95430.06;4877047;29;20216;-85
2022/11/01 05:20:35;;;;;;;8.90;5.57;;;;;;;13.53;68.28;95426.41;4877523;29;20209;-81
2022/11/01 05:23:03;;;;;;;6.83;5.30;;;;;;;13.65;68.62;95442.50;4877175;29;20197;-86
2022/11/01 05:25:31;;;;;;;8.13;5.97;;;;;;;13.68;68.40;95443.00;4882329;29;20641;-85
2022/11/01 05:28:06;;;;;;;10.33;5.30;;;;;;;13.72;68.43;95443.56;4885969;29;20200;-85
2022/11/01 05:30:33;;;;;;;9.40;5.93;;;;;;;13.71;68.53;95439.38;4885019;29;20200;-89
2022/11/01 05:33:01;;;;;;;9.53;5.20;;;;;;;13.73;68.45;95443.44;4887604;29;20185;-87
2022/11/01 05:35:31;;;;;;;8.17;5.70;;;;;;;13.83;68.48;95452.88;4886628;29;20307;-84
2022/11/01 05:37:58;;;;;;;8.03;5.37;;;;;;;13.81;68.30;95437.56;4885204;29;20236;-87
2022/11/01 05:40:25;;;;;;;7.23;5.57;;;;;;;13.55;68.08;95391.91;4884169;29;20658;-80
2022/11/01 05:42:53;;;;;;;8.17;4.97;;;;;;;13.95;68.31;95446.63;4867024;29;20185;-84
2022/11/01 05:45:21;;;;;;;9.57;5.83;;;;;;;14.06;68.15;95457.53;4886943;29;20585;-82
2022/11/01 05:47:49;;;;;;;11.73;6.30;;;;;;;14.12;68.12;95458.75;4887845;29;20257;-83
2022/11/01 05:50:16;;;;;;;9.03;5.70;;;;;;;14.07;68.18;95437.78;4885454;29;20208;-82
2022/11/01 05:52:43;;;;;;;9.07;6.07;;;;;;;14.28;67.91;95463.28;4885427;29;20200;-84
2022/11/01 05:55:13;;;;;;;11.23;6.40;;;;;;;14.35;68.01;95459.22;4885656;29;20200;-81
2022/11/01 05:57:40;;;;;;;10.40;6.20;;;;;;;14.36;67.73;95449.72;4884071;29;20731;-81
2022/11/01 06:00:09;;;;;;;12.00;5.97;;;;;;;14.48;67.75;95462.28;4881420;29;20205;-80
2022/11/01 06:02:37;;;;;;;8.97;6.30;;;;;;;14.62;67.71;95463.56;4879710;29;20197;-79
2022/11/01 06:05:05;;;;;;;10.67;6.30;;;;;;;14.78;67.51;95465.53;4875937;29;20201;-80
2022/11/01 06:07:34;;;;;;;7.73;5.70;;;;;;;14.85;75.20;95424.56;4879114;29;20208;-81
2022/11/01 06:10:01;;;;;;;15.50;6.40;;;;;;;15.70;98.27;95478.16;4878744;29;20197;-80
2022/11/01 06:12:28;;;;;;;13.60;8.10;;;;;;;16.37;98.92;95473.28;4882630;29;20676;-82
2022/11/01 06:14:55;;;;;;;15.63;7.87;;;;;;;17.01;94.91;95465.94;4898043;29;20200;-80
2022/11/01 06:17:22;;;;;;;13.47;6.70;;;;;;;17.60;91.05;95466.66;4881082;29;20235;-83
2022/11/01 06:19:50;;;;;;;14.00;6.70;;;;;;;18.19;87.03;95480.22;4877994;29;20190;-82
2022/11/01 06:22:17;;;;;;;19.97;7.40;;;;;;;18.66;83.73;95471.66;4879357;29;20592;-81
2022/11/01 06:24:44;;;;;;;11.00;7.00;;;;;;;19.20;81.19;95478.69;4880350;29;20307;-83
2022/11/01 06:27:11;;;;;;;14.13;6.87;;;;;;;19.72;78.75;95486.63;4880786;29;20200;-83
2022/11/01 06:29:38;;;;;;;10.00;6.80;;;;;;;20.27;76.76;95488.06;4880911;29;20700;-82
2022/11/01 06:32:05;;;;;;;12.37;6.97;;;;;;;20.72;74.33;95470.72;4881296;29;20198;-81
2022/11/01 06:34:35;;;;;;;17.57;6.70;;;;;;;21.28;72.44;95468.34;4882472;29;20289;-81
2022/11/01 06:37:13;;;;;;;14.07;6.40;;;;;;;21.87;70.41;95484.72;4884383;29;20197;-80
2022/11/01 06:39:40;;;;;;;14.37;8.30;;;;;;;22.44;68.57;95487.16;4888133;29;20195;-82
2022/11/01 06:42:07;;;;;;;14.52;9.60;;;;;;;22.92;67.04;95491.63;4888797;29;20197;-81
2022/11/01 06:44:41;;;;;;;13.60;8.30;;;;;;;23.35;65.22;95483.53;4891123;29;20193;-82
2022/11/01 06:47:08;;;;;;;13.30;8.27;;;;;;;23.87;63.67;95492.47;4892276;29;20200;-80
2022/11/01 06:49:38;;;;;;;14.18;8.45;;;;;;;24.32;62.58;95498.69;4894447;29;20201;-82
2022/11/01 06:52:06;;;;;;;15.50;8.20;;;;;;;24.77;60.87;95496.22;4893381;29;20204;-83
2022/11/01 06:54:33;;;;;;;18.13;9.25;;;;;;;25.19;59.29;95497.47;4893012;29;20223;-83
2022/11/01 06:57:01;;;;;;;12.57;8.43;;;;;;;25.62;58.11;95498.66;4897989;29;20219;-84
2022/11/01 06:59:28;;;;;;;16.40;7.30;;;;;;;25.88;57.00;95479.34;4898025;29;20301;-88
2022/11/01 07:01:56;;;;;;;12.68;8.35;;;;;;;26.21;55.79;95474.63;4895238;29;20249;-84
2022/11/01 07:04:24;;;;;;;12.07;7.93;;;;;;;26.71;54.61;95492.13;4887235;29;20629;-88
2022/11/01 07:06:51;;;;;;;9.45;7.25;;;;;;;27.04;53.93;95496.19;4893475;29;20256;-84
2022/11/01 07:09:22;;;;;;;15.10;7.57;;;;;;;27.34;53.05;95494.44;4881858;29;20193;-85
2022/11/01 07:11:49;;;;;;;13.77;7.28;;;;;;;27.58;52.04;95487.41;4878199;29;20193;-85
2022/11/01 07:14:16;;;;;;;16.80;7.82;;;;;;;27.80;50.84;95482.47;4878127;29;20530;-83
2022/11/01 07:16:45;;;;;;;13.18;6.97;;;;;;;28.07;50.22;95482.84;4878800;29;20232;-84
2022/11/01 07:19:14;;;;;;;15.00;7.68;;;;;;;28.35;49.89;95497.16;4878641;29;20586;-82
2022/11/01 07:21:40;;;;;;;15.55;7.50;;;;;;;28.62;48.85;95502.75;4878136;29;20629;-83
2022/11/01 07:24:08;;;;;;;12.57;6.65;;;;;;;28.77;48.40;95489.13;4879130;29;20202;-86
2022/11/01 07:26:37;;;;;;;12.07;6.50;;;;;;;29.02;47.53;95502.03;4861828;29;20287;-85
2022/11/01 07:29:04;;;;;;;13.35;7.18;;;;;;;29.18;47.01;95499.47;4877500;29;20205;-83
2022/11/01 07:31:32;;;;;;;14.95;7.15;;;;;;;29.32;46.80;95497.38;4878066;29;20193;-82
2022/11/01 07:33:59;;;;;;;11.85;7.32;;;;;;;29.37;46.26;95489.56;4877960;29;20189;-83
2022/11/01 07:36:26;;;;;;;11.15;7.55;;;;;;;29.54;46.09;95494.88;4878332;29;20208;-81
2022/11/01 07:38:53;;;;;;;12.63;6.93;;;;;;;29.64;45.28;95491.63;4877837;29;20240;-82
2022/11/01 07:41:19;;;;;;;12.48;7.03;;;;;;;29.77;45.07;95501.88;4878138;29;20197;-82
2022/11/01 07:43:48;;;;;;;11.88;6.63;;;;;;;29.85;44.69;95501.47;4880449;29;20208;-80
2022/11/01 07:48:55;;;;;;;10.18;6.88;;;;;;;29.82;44.62;95496.69;4883223;29;20331;-83
2022/11/01 07:51:22;;;;;;;12.60;7.47;;;;;;;30.15;44.57;95493.28;4885241;29;20208;-81
2022/11/01 07:53:51;;;;;;;16.80;7.10;;;;;;;31.70;42.23;95490.47;4882972;29;20649;-85
2022/11/01 07:56:20;;;;;;;10.25;7.45;;;;;;;32.13;41.28;95483.44;4883872;29;20253;-83
2022/11/01 07:58:48;;;;;;;16.35;7.38;;;;;;;31.72;41.03;95491.00;4887493;29;20221;-81
2022/11/01 08:01:16;;;;;;;16.70;7.90;;;;;;;31.40;41.19;95498.09;4889775;29;20197;-81
2022/11/01 08:03:43;;;;;;;17.02;7.70;;;;;;;31.51;40.65;95488.41;4891401;29;20212;-82
2022/11/01 08:06:09;;;;;;;12.45;7.05;;;;;;;31.30;40.36;95493.47;4892841;29;20646;-80
2022/11/01 08:08:36;;;;;;;15.85;7.65;;;;;;;30.74;40.90;95492.78;4897377;29;20196;-82
2022/11/01 08:11:04;;;;;;;14.38;7.55;;;;;;;30.16;41.27;95492.25;4895293;29;20201;-83
2022/11/01 08:13:31;;;;;;;11.50;6.88;;;;;;;29.65;41.96;95488.75;4893654;29;20203;-80
2022/11/01 08:16:02;;;;;;;11.35;6.63;;;;;;;29.18;42.14;95482.84;4897666;29;20239;-82
2022/11/01 08:18:29;;;;;;;15.27;8.93;;;;;;;28.80;42.25;95494.75;4897709;29;20231;-81
2022/11/01 08:21:00;;;;;;;16.45;7.22;;;;;;;28.44;42.45;95487.91;4895577;29;20665;-80
2022/11/01 08:23:26;;;;;;;13.35;7.82;;;;;;;28.11;42.76;95478.75;4893521;29;20197;-80
2022/11/01 08:25:57;;;;;;;11.27;7.30;;;;;;;27.73;43.25;95469.44;4886177;29;20615;-84
2022/11/01 08:28:27;;;;;;;14.80;8.70;;;;;;;27.51;43.44;95479.63;4879333;29;20704;-86
2022/11/01 08:30:56;;;;;;;13.70;7.72;;;;;;;27.25;43.28;95477.38;4879601;29;20235;-84
2022/11/01 08:33:26;;;;;;;14.23;7.63;;;;;;;26.99;43.67;95468.78;4879537;29;20201;-87
2022/11/01 08:35:53;;;;;;;13.23;8.20;;;;;;;26.75;44.06;95470.47;4878809;29;20225;-85
2022/11/01 08:38:21;;;;;;;17.08;8.68;;;;;;;26.43;44.24;95446.19;4878427;29;20213;-85
2022/11/01 08:40:48;;;;;;;13.85;8.85;;;;;;;26.30;43.95;95462.06;4878102;29;20213;-84
2022/11/01 08:43:15;;;;;;;15.02;7.93;;;;;;;26.11;44.43;95470.88;4878135;29;20209;-84
2022/11/01 08:45:42;;;;;;;16.27;9.23;;;;;;;25.91;44.67;95458.78;4878024;29;20196;-83
2022/11/01 08:48:11;;;;;;;14.18;8.23;;;;;;;25.74;45.05;95457.66;4878206;29;20204;-86
2022/11/01 08:50:40;;;;;;;12.27;8.40;;;;;;;25.50;44.70;95448.75;4879056;29;20670;-85
2022/11/01 08:53:09;;;;;;;12.98;8.77;;;;;;;25.41;45.25;95453.44;4881186;29;20201;-85
2022/11/01 08:55:37;;;;;;;16.30;8.45;;;;;;;25.27;45.15;95465.81;4885015;29;20209;-83
2022/11/01 08:58:04;;;;;;;13.15;8.43;;;;;;;25.06;45.38;95453.00;4879352;29;20236;-85
2022/11/01 09:00:31;;;;;;;13.82;8.88;;;;;;;25.03;45.18;95462.06;4878385;29;20197;-83
2022/11/01 09:02:57;;;;;;;12.73;8.85;;;;;;;24.90;45.70;95456.91;4878109;29;20196;-84
2022/11/01 09:05:25;;;;;;;14.32;8.93;;;;;;;24.81;45.69;95454.75;4889009;29;20193;-84
2022/11/01 09:07:57;;;;;;;16.17;9.07;;;;;;;24.70;45.72;95446.53;4880671;29;20201;-84
2022/11/01 09:10:25;;;;;;;10.20;8.75;;;;;;;24.56;45.72;95444.16;4879195;29;20212;-84
2022/11/01 09:12:52;;;;;;;14.68;9.15;;;;;;;24.32;45.88;95419.47;4879064;29;20589;-85
2022/11/01 09:15:19;;;;;;;18.67;8.98;;;;;;;24.45;45.85;95443.78;4878305;29;20233;-83
2022/11/01 09:17:47;;;;;;;16.05;8.38;;;;;;;24.27;46.01;95430.53;4878534;29;20193;-86
2022/11/01 09:20:15;;;;;;;11.05;7.90;;;;;;;24.29;46.11;95446.81;4877709;29;20600;-85
2022/11/01 09:22:41;;;;;;;12.30;8.43;;;;;;;24.13;46.02;95429.75;4877245;29;20265;-86
2022/11/01 09:25:11;;;;;;;19.58;8.80;;;;;;;23.91;46.17;95397.00;4876991;29;20204;-85
2022/11/01 09:27:38;;;;;;;14.18;8.68;;;;;;;24.10;46.10;95442.44;4876960;29;20201;-81
2022/11/01 09:30:06;;;;;;;13.82;8.88;;;;;;;24.05;46.53;95443.06;4877115;29;20209;-83
2022/11/01 09:32:33;;;;;;;14.80;8.55;;;;;;;24.00;46.54;95432.38;4876739;29;20201;-84
2022/11/01 09:35:00;;;;;;;11.23;8.35;;;;;;;23.96;46.69;95434.63;4877366;29;20291;-83
2022/11/01 09:37:27;;;;;;;12.15;8.70;;;;;;;23.93;46.68;95427.19;4877326;29;20189;-85
2022/11/01 09:39:56;;;;;;;16.10;8.02;;;;;;;23.82;47.02;95414.72;4877038;29;20237;-84
2022/11/01 09:42:33;;;;;;;14.20;8.13;;;;;;;23.83;46.57;95411.09;4876878;29;20205;-84
2022/11/01 09:45:05;;;;;;;16.48;8.52;;;;;;;23.82;46.87;95419.13;4877121;29;20211;-83
2022/11/01 09:47:35;;;;;;;16.48;7.70;;;;;;;23.80;46.72;95408.09;4877479;29;20209;-83
2022/11/01 09:50:37;;;;;;;13.73;7.68;;;;;;;23.83;46.86;95418.91;4877006;29;20197;-84
2022/11/01 09:53:17;;;;;;;15.35;8.82;;;;;;;23.81;46.97;95414.91;4876724;29;20790;-85
2022/11/01 09:55:51;;;;;;;14.82;8.23;;;;;;;23.78;46.75;95409.09;4876197;29;20676;-84
2022/11/01 09:58:32;;;;;;;12.77;8.00;;;;;;;23.77;46.57;95404.88;4876781;29;20239;-85
2022/11/01 10:01:11;;;;;;;15.65;9.00;;;;;;;23.52;47.05;95362.84;4876687;29;20653;-84
2022/11/01 10:03:54;;;;;;;15.65;7.60;;;;;;;23.48;46.76;95350.41;4876556;29;20193;-85
2022/11/01 10:06:24;;;;;;;13.95;7.40;;;;;;;23.80;47.16;95401.06;4876845;29;20197;-80
2022/11/01 10:09:04;;;;;;;13.45;8.20;;;;;;;23.55;46.99;95353.84;4876343;29;20208;-82
2022/11/01 10:11:53;;;;;;;12.80;7.80;;;;;;;23.71;46.84;95382.19;4879120;29;20207;-83
2022/11/01 10:14:35;;;;;;;14.15;7.28;;;;;;;23.71;46.67;95373.53;4880056;29;20209;-82
2022/11/01 10:17:12;;;;;;;11.23;8.13;;;;;;;23.84;47.12;95389.19;4879337;29;20320;-82
2022/11/01 10:19:43;;;;;;;16.23;8.43;;;;;;;23.75;46.87;95367.72;4879953;29;20327;-82
2022/11/01 10:22:16;;;;;;;12.32;8.15;;;;;;;23.86;46.71;95383.75;4880071;29;20208;-80
2022/11/01 10:24:49;;;;;;;15.95;8.20;;;;;;;23.77;46.88;95357.06;4880549;29;20194;-82
2022/11/01 10:27:22;;;;;;;11.57;7.72;;;;;;;23.74;46.86;95350.41;4881043;29;20193;-83
2022/11/01 10:29:58;;;;;;;15.38;7.40;;;;;;;23.89;47.11;95367.69;4881055;29;20249;-84
2022/11/01 10:32:35;;;;;;;11.52;7.60;;;;;;;23.70;47.25;95345.78;4881183;29;20200;-83
2022/11/01 10:35:06;;;;;;;14.18;7.57;;;;;;;23.91;47.06;95369.06;4881396;29;20216;-85
2022/11/01 10:37:39;;;;;;;16.48;7.90;;;;;;;23.78;47.14;95346.38;4881916;29;20201;-85
2022/11/01 10:40:15;;;;;;;16.25;7.75;;;;;;;23.91;47.32;95363.06;4883312;29;20240;-85
2022/11/01 10:42:43;;;;;;;8.27;7.32;;;;;;;23.96;47.27;95358.84;4883632;29;20200;-83
2022/11/01 10:45:16;;;;;;;12.75;7.30;;;;;;;23.98;47.00;95361.25;4881507;29;20237;-82
2022/11/01 10:47:45;;;;;;;12.25;8.57;;;;;;;23.94;46.96;95354.81;4880658;29;20204;-84
2022/11/01 10:50:18;;;;;;;12.15;7.78;;;;;;;23.78;47.40;95324.69;4880739;29;20197;-84
2022/11/01 10:52:51;;;;;;;17.10;8.40;;;;;;;23.96;46.95;95337.94;4879944;29;20199;-85
2022/11/01 10:55:25;;;;;;;11.85;7.75;;;;;;;23.97;47.03;95333.50;4880544;29;20201;-85
2022/11/01 10:58:00;;;;;;;13.57;8.10;;;;;;;24.06;47.16;95347.16;4880377;29;20733;-84
2022/11/01 11:00:31;;;;;;;12.77;7.93;;;;;;;23.81;47.42;95297.38;4880442;29;20228;-83
2022/11/01 11:03:03;;;;;;;9.10;7.05;;;;;;;24.03;47.19;95330.06;4880156;29;20203;-85
2022/11/01 11:05:32;;;;;;;13.95;7.75;;;;;;;24.09;47.28;95337.06;4883124;29;20641;-84
2022/11/01 11:08:03;;;;;;;12.20;7.13;;;;;;;24.10;47.28;95336.09;4884455;29;20205;-84
2022/11/01 11:10:30;;;;;;;12.02;8.23;;;;;;;24.13;47.09;95333.03;4882437;29;20200;-86
2022/11/01 11:13:03;;;;;;;13.55;7.47;;;;;;;23.92;47.10;95302.78;4884826;29;20228;-83
2022/11/01 11:15:46;;;;;;;12.55;6.78;;;;;;;24.17;47.22;95328.22;4886177;29;20228;-81
2022/11/01 11:18:24;;;;;;;10.27;7.32;;;;;;;24.08;46.99;95311.94;4883915;29;20764;-85
2022/11/01 11:20:53;;;;;;;12.88;7.90;;;;;;;24.16;46.97;95313.53;4884619;29;20205;-83
2022/11/01 11:23:24;;;;;;;11.60;7.30;;;;;;;24.21;47.18;95319.75;4885124;29;20197;-84
2022/11/01 11:25:51;;;;;;;14.50;7.78;;;;;;;24.23;47.06;95319.56;4886182;29;20207;-84
2022/11/01 11:28:25;;;;;;;9.80;7.95;;;;;;;24.15;47.41;95304.91;4885461;29;20197;-84
2022/11/01 11:30:54;;;;;;;10.70;7.07;;;;;;;24.09;47.26;95291.84;4885134;29;20192;-84
2022/11/01 11:33:25;;;;;;;9.43;7.10;;;;;;;24.27;46.84;95318.13;4885877;29;20303;-83
2022/11/01 11:35:56;;;;;;;11.55;7.70;;;;;;;24.19;46.99;95297.44;4884539;29;20749;-86
2022/11/01 11:38:44;;;;;;;10.82;6.88;;;;;;;24.28;47.15;95311.88;4886541;29;20252;-81
2022/11/01 11:41:13;;;;;;;10.50;7.00;;;;;;;24.20;47.24;95292.00;4882842;29;20197;-82
2022/11/01 11:43:41;;;;;;;12.07;6.80;;;;;;;24.29;47.34;95301.22;4884421;29;20197;-84
2022/11/01 11:46:19;;;;;;;12.65;6.68;;;;;;;24.25;47.35;95291.38;4881444;29;20189;-83
2022/11/01 11:48:48;;;;;;;14.63;7.05;;;;;;;24.24;47.12;95292.41;4881822;29;20296;-85